San Andres de Giles, Argentina
Current Conditions -  °F | °C
As of 4:00 PM on Tuesday 27 Jan 2015 (Local Time) from SADF Reporting Station
Broken Clouds Broken Clouds  
Wind Chill: 93°   Ceiling: 20000
Heat Index: 99°   Visibility: 6mi
Dew Point: 70°   Wind: 7mph
Humidity: 46%   Direction: 270°W
Pressure: 29.68"   Gusts: NA
Location:  34.45°S, 59.45°W
Report Text: SADF 271900Z 27006KT 9999 FEW030 BKN20034/21 Q1005
Loading
Personal Weather Stations






























Interactive Weather Map New forecast layout! Learn more

10-Day Weather Forecast

Advertisements
Track Severe Weather on mobile